Terminal Aerodrome Forecast
Issued by NWS

Home | Current Version | Previous Version | Text Only | Print | Product List | Glossary On
Versions: 1 2 3 4 5 6 7 8 9 10 11 12 13
000
FTUS41 KALY 130500
TAFPSF
TAF
KPSF 130522Z 1306/1406 20005KT P6SM FEW060 SCT100 BKN200
     FM131200 20010G18KT P6SM FEW010 SCT050 BKN100
     FM131600 20012G22KT P6SM VCSH BKN050 OVC080 PROB30 1318/1324
      3SM TSRA BR OVC025CB
     FM140000 20008KT 4SM BR VCSH SCT020 BKN030
      TEMPO 1400/1402 1SM TSRA BR BKN020CB=

USA.gov is the U.S. government's official web portal to all federal, state and local government web resources and services.